Terminal Aerodrome Forecast
Issued by NWS Bismarck, ND

Home | Current Version | Previous Version | Graphics & Text | Print | Product List | Glossary On
Versions: 1 2 3 4 5 6 7 8 9 10 11 12 13 14 15 16 17 18 19 20 21
000
FTUS43 KBIS 182300
TAFBIS
TAF
KBIS 182325Z 1900/1924 17014G20KT P6SM SCT180 OVC220
     FM190200 17011KT P6SM VCSH BKN110 OVC180
     FM190500 16006KT P6SM VCSH BKN100 OVC150
     FM191200 18007KT P6SM VCSH SCT080 BKN120
     FM191400 28009KT P6SM SCT150
     FM191800 29014G19KT P6SM FEW060 FEW110=

USA.gov is the U.S. government's official web portal to all federal, state and local government web resources and services.